sensor_id;sensor_type;location;lat;lon;timestamp;P1;durP1;ratioP1;P2;durP2;ratioP2
46717;SDS011;32448;44.960;-0.698;2023-01-16T00:02:17;52.20;;;11.25;;
46717;SDS011;32448;44.960;-0.698;2023-01-16T00:04:46;42.17;;;9.05;;
46717;SDS011;32448;44.960;-0.698;2023-01-16T00:07:14;30.48;;;6.68;;
46717;SDS011;32448;44.960;-0.698;2023-01-16T00:09:41;31.77;;;6.72;;
46717;SDS011;32448;44.960;-0.698;2023-01-16T00:12:09;23.13;;;5.30;;
46717;SDS011;32448;44.960;-0.698;2023-01-16T00:14:37;26.17;;;6.43;;
46717;SDS011;32448;44.960;-0.698;2023-01-16T00:17:06;24.60;;;4.78;;
46717;SDS011;32448;44.960;-0.698;2023-01-16T00:19:34;33.25;;;7.47;;
46717;SDS011;32448;44.960;-0.698;2023-01-16T00:22:05;22.30;;;4.72;;
46717;SDS011;32448;44.960;-0.698;2023-01-16T00:24:32;25.02;;;5.10;;
46717;SDS011;32448;44.960;-0.698;2023-01-16T00:27:00;22.02;;;3.53;;
46717;SDS011;32448;44.960;-0.698;2023-01-16T00:29:27;30.50;;;7.75;;
46717;SDS011;32448;44.960;-0.698;2023-01-16T00:31:55;21.00;;;5.63;;
46717;SDS011;32448;44.960;-0.698;2023-01-16T00:34:23;19.75;;;4.20;;
46717;SDS011;32448;44.960;-0.698;2023-01-16T00:36:51;15.68;;;3.80;;
46717;SDS011;32448;44.960;-0.698;2023-01-16T00:39:18;22.98;;;5.90;;
46717;SDS011;32448;44.960;-0.698;2023-01-16T00:41:46;17.27;;;3.30;;
46717;SDS011;32448;44.960;-0.698;2023-01-16T00:44:13;19.15;;;3.90;;
46717;SDS011;32448;44.960;-0.698;2023-01-16T00:46:40;20.45;;;3.10;;
46717;SDS011;32448;44.960;-0.698;2023-01-16T00:49:08;24.70;;;4.88;;
46717;SDS011;32448;44.960;-0.698;2023-01-16T00:51:35;15.20;;;4.43;;
46717;SDS011;32448;44.960;-0.698;2023-01-16T00:54:03;20.20;;;3.97;;
46717;SDS011;32448;44.960;-0.698;2023-01-16T00:56:30;17.75;;;2.35;;
46717;SDS011;32448;44.960;-0.698;2023-01-16T00:58:58;12.07;;;2.30;;
46717;SDS011;32448;44.960;-0.698;2023-01-16T01:01:26;13.32;;;1.98;;
46717;SDS011;32448;44.960;-0.698;2023-01-16T01:03:53;18.60;;;2.30;;
46717;SDS011;32448;44.960;-0.698;2023-01-16T01:06:21;17.30;;;1.98;;
46717;SDS011;32448;44.960;-0.698;2023-01-16T01:08:49;15.00;;;1.85;;
46717;SDS011;32448;44.960;-0.698;2023-01-16T01:11:16;13.43;;;1.60;;
46717;SDS011;32448;44.960;-0.698;2023-01-16T01:13:44;20.85;;;2.13;;
46717;SDS011;32448;44.960;-0.698;2023-01-16T01:16:12;10.45;;;2.08;;
46717;SDS011;32448;44.960;-0.698;2023-01-16T01:18:39;12.55;;;1.50;;
46717;SDS011;32448;44.960;-0.698;2023-01-16T01:21:24;11.85;;;1.60;;
46717;SDS011;32448;44.960;-0.698;2023-01-16T01:23:52;20.17;;;2.15;;
46717;SDS011;32448;44.960;-0.698;2023-01-16T01:26:22;14.30;;;1.70;;
46717;SDS011;32448;44.960;-0.698;2023-01-16T01:28:49;11.38;;;2.47;;
46717;SDS011;32448;44.960;-0.698;2023-01-16T01:31:17;12.30;;;1.75;;
46717;SDS011;32448;44.960;-0.698;2023-01-16T01:33:44;10.35;;;2.10;;
46717;SDS011;32448;44.960;-0.698;2023-01-16T01:36:11;12.38;;;1.70;;
46717;SDS011;32448;44.960;-0.698;2023-01-16T01:38:39;11.85;;;1.92;;
46717;SDS011;32448;44.960;-0.698;2023-01-16T01:41:07;9.00;;;1.40;;
46717;SDS011;32448;44.960;-0.698;2023-01-16T01:48:57;9.25;;;1.35;;
46717;SDS011;32448;44.960;-0.698;2023-01-16T01:51:32;16.88;;;1.38;;
46717;SDS011;32448;44.960;-0.698;2023-01-16T01:54:06;10.00;;;1.77;;
46717;SDS011;32448;44.960;-0.698;2023-01-16T01:56:51;7.97;;;1.42;;
46717;SDS011;32448;44.960;-0.698;2023-01-16T01:59:27;6.25;;;1.23;;
46717;SDS011;32448;44.960;-0.698;2023-01-16T02:02:00;12.48;;;1.95;;
46717;SDS011;32448;44.960;-0.698;2023-01-16T02:04:32;15.30;;;2.22;;
46717;SDS011;32448;44.960;-0.698;2023-01-16T02:07:03;18.58;;;2.17;;
46717;SDS011;32448;44.960;-0.698;2023-01-16T02:09:34;13.00;;;1.70;;
46717;SDS011;32448;44.960;-0.698;2023-01-16T02:12:07;12.82;;;1.80;;
46717;SDS011;32448;44.960;-0.698;2023-01-16T02:14:38;11.05;;;2.08;;
46717;SDS011;32448;44.960;-0.698;2023-01-16T02:20:18;16.17;;;1.95;;
46717;SDS011;32448;44.960;-0.698;2023-01-16T02:39:48;16.95;;;2.15;;
46717;SDS011;32448;44.960;-0.698;2023-01-16T02:45:32;21.77;;;2.25;;
46717;SDS011;32448;44.960;-0.698;2023-01-16T02:54:02;19.02;;;3.15;;
46717;SDS011;32448;44.960;-0.698;2023-01-16T02:56:39;26.45;;;3.03;;
46717;SDS011;32448;44.960;-0.698;2023-01-16T02:59:13;17.27;;;2.03;;
46717;SDS011;32448;44.960;-0.698;2023-01-16T03:01:43;18.40;;;2.15;;
46717;SDS011;32448;44.960;-0.698;2023-01-16T03:07:06;16.70;;;2.58;;
46717;SDS011;32448;44.960;-0.698;2023-01-16T03:09:44;24.95;;;2.88;;
46717;SDS011;32448;44.960;-0.698;2023-01-16T03:12:38;26.00;;;3.22;;
46717;SDS011;32448;44.960;-0.698;2023-01-16T03:17:57;36.33;;;5.18;;
46717;SDS011;32448;44.960;-0.698;2023-01-16T03:26:27;33.97;;;4.15;;
46717;SDS011;32448;44.960;-0.698;2023-01-16T03:29:17;29.95;;;3.38;;
46717;SDS011;32448;44.960;-0.698;2023-01-16T03:39:45;34.35;;;3.95;;
46717;SDS011;32448;44.960;-0.698;2023-01-16T03:42:16;36.20;;;5.55;;
46717;SDS011;32448;44.960;-0.698;2023-01-16T03:44:52;30.67;;;5.15;;
46717;SDS011;32448;44.960;-0.698;2023-01-16T03:47:26;33.13;;;4.20;;
46717;SDS011;32448;44.960;-0.698;2023-01-16T03:49:59;33.70;;;5.35;;
46717;SDS011;32448;44.960;-0.698;2023-01-16T03:52:32;34.70;;;4.55;;
46717;SDS011;32448;44.960;-0.698;2023-01-16T03:58:09;61.25;;;9.30;;
46717;SDS011;32448;44.960;-0.698;2023-01-16T04:00:50;77.22;;;11.00;;
46717;SDS011;32448;44.960;-0.698;2023-01-16T04:03:27;61.97;;;8.05;;
46717;SDS011;32448;44.960;-0.698;2023-01-16T04:06:10;50.65;;;8.20;;
46717;SDS011;32448;44.960;-0.698;2023-01-16T04:08:47;61.42;;;9.45;;
46717;SDS011;32448;44.960;-0.698;2023-01-16T04:11:18;57.83;;;8.50;;
46717;SDS011;32448;44.960;-0.698;2023-01-16T04:13:49;68.10;;;9.80;;
46717;SDS011;32448;44.960;-0.698;2023-01-16T04:16:19;72.00;;;9.50;;
46717;SDS011;32448;44.960;-0.698;2023-01-16T04:18:49;71.55;;;8.77;;
46717;SDS011;32448;44.960;-0.698;2023-01-16T04:21:20;44.70;;;7.90;;
46717;SDS011;32448;44.960;-0.698;2023-01-16T04:23:54;64.18;;;8.30;;
46717;SDS011;32448;44.960;-0.698;2023-01-16T04:26:23;49.90;;;7.75;;
46717;SDS011;32448;44.960;-0.698;2023-01-16T04:28:51;67.13;;;9.70;;
46717;SDS011;32448;44.960;-0.698;2023-01-16T04:31:23;47.67;;;7.60;;
46717;SDS011;32448;44.960;-0.698;2023-01-16T04:33:51;35.65;;;5.47;;
46717;SDS011;32448;44.960;-0.698;2023-01-16T04:36:19;37.95;;;5.78;;
46717;SDS011;32448;44.960;-0.698;2023-01-16T04:38:47;32.75;;;5.57;;
46717;SDS011;32448;44.960;-0.698;2023-01-16T04:41:15;34.13;;;5.38;;
46717;SDS011;32448;44.960;-0.698;2023-01-16T04:44:06;29.38;;;4.95;;
46717;SDS011;32448;44.960;-0.698;2023-01-16T04:49:05;31.13;;;5.05;;
46717;SDS011;32448;44.960;-0.698;2023-01-16T04:51:33;32.65;;;5.07;;
46717;SDS011;32448;44.960;-0.698;2023-01-16T04:54:02;43.05;;;5.47;;
46717;SDS011;32448;44.960;-0.698;2023-01-16T04:56:31;33.72;;;5.88;;
46717;SDS011;32448;44.960;-0.698;2023-01-16T04:58:59;34.20;;;5.53;;
46717;SDS011;32448;44.960;-0.698;2023-01-16T05:01:26;39.33;;;5.32;;
46717;SDS011;32448;44.960;-0.698;2023-01-16T05:03:54;47.95;;;6.13;;
46717;SDS011;32448;44.960;-0.698;2023-01-16T05:06:21;42.88;;;5.70;;
46717;SDS011;32448;44.960;-0.698;2023-01-16T05:08:48;26.42;;;5.53;;
46717;SDS011;32448;44.960;-0.698;2023-01-16T05:11:16;29.55;;;5.03;;
46717;SDS011;32448;44.960;-0.698;2023-01-16T05:13:46;38.08;;;4.68;;
46717;SDS011;32448;44.960;-0.698;2023-01-16T05:16:14;26.60;;;4.03;;
46717;SDS011;32448;44.960;-0.698;2023-01-16T05:18:41;35.85;;;4.25;;
46717;SDS011;32448;44.960;-0.698;2023-01-16T05:21:09;39.78;;;4.65;;
46717;SDS011;32448;44.960;-0.698;2023-01-16T05:23:36;33.67;;;5.13;;
46717;SDS011;32448;44.960;-0.698;2023-01-16T05:26:04;36.30;;;5.03;;
46717;SDS011;32448;44.960;-0.698;2023-01-16T05:28:33;31.58;;;4.68;;
46717;SDS011;32448;44.960;-0.698;2023-01-16T05:31:03;37.70;;;5.13;;
46717;SDS011;32448;44.960;-0.698;2023-01-16T05:33:34;35.22;;;5.38;;
46717;SDS011;32448;44.960;-0.698;2023-01-16T05:36:06;33.42;;;4.90;;
46717;SDS011;32448;44.960;-0.698;2023-01-16T05:38:44;36.85;;;5.10;;
46717;SDS011;32448;44.960;-0.698;2023-01-16T05:41:17;34.83;;;5.20;;
46717;SDS011;32448;44.960;-0.698;2023-01-16T05:43:44;43.25;;;5.55;;
46717;SDS011;32448;44.960;-0.698;2023-01-16T05:46:12;29.25;;;5.10;;
46717;SDS011;32448;44.960;-0.698;2023-01-16T05:48:40;38.80;;;5.90;;
46717;SDS011;32448;44.960;-0.698;2023-01-16T05:51:08;41.78;;;5.80;;
46717;SDS011;32448;44.960;-0.698;2023-01-16T05:53:35;48.67;;;6.53;;
46717;SDS011;32448;44.960;-0.698;2023-01-16T05:56:06;39.38;;;5.63;;
46717;SDS011;32448;44.960;-0.698;2023-01-16T05:58:35;34.07;;;5.57;;
46717;SDS011;32448;44.960;-0.698;2023-01-16T06:01:03;37.17;;;5.82;;
46717;SDS011;32448;44.960;-0.698;2023-01-16T06:03:31;34.70;;;6.07;;
46717;SDS011;32448;44.960;-0.698;2023-01-16T06:05:59;31.95;;;5.30;;
46717;SDS011;32448;44.960;-0.698;2023-01-16T06:08:28;38.83;;;5.70;;
46717;SDS011;32448;44.960;-0.698;2023-01-16T06:10:56;31.83;;;5.10;;
46717;SDS011;32448;44.960;-0.698;2023-01-16T06:13:23;39.50;;;5.95;;
46717;SDS011;32448;44.960;-0.698;2023-01-16T06:15:51;43.88;;;6.15;;
46717;SDS011;32448;44.960;-0.698;2023-01-16T06:18:18;29.35;;;4.72;;
46717;SDS011;32448;44.960;-0.698;2023-01-16T06:20:46;38.15;;;5.78;;
46717;SDS011;32448;44.960;-0.698;2023-01-16T06:23:13;36.20;;;5.20;;
46717;SDS011;32448;44.960;-0.698;2023-01-16T06:25:41;32.60;;;5.22;;
46717;SDS011;32448;44.960;-0.698;2023-01-16T06:28:08;26.27;;;4.50;;
46717;SDS011;32448;44.960;-0.698;2023-01-16T06:30:36;30.02;;;4.22;;
46717;SDS011;32448;44.960;-0.698;2023-01-16T06:33:04;33.97;;;4.88;;
46717;SDS011;32448;44.960;-0.698;2023-01-16T06:35:31;30.88;;;4.72;;
46717;SDS011;32448;44.960;-0.698;2023-01-16T06:38:01;31.58;;;4.70;;
46717;SDS011;32448;44.960;-0.698;2023-01-16T06:40:29;30.73;;;4.25;;
46717;SDS011;32448;44.960;-0.698;2023-01-16T06:42:57;29.73;;;4.28;;
46717;SDS011;32448;44.960;-0.698;2023-01-16T06:45:24;34.33;;;5.45;;
46717;SDS011;32448;44.960;-0.698;2023-01-16T06:47:53;30.17;;;3.80;;
46717;SDS011;32448;44.960;-0.698;2023-01-16T06:50:20;27.23;;;4.63;;
46717;SDS011;32448;44.960;-0.698;2023-01-16T06:52:48;22.95;;;3.30;;
46717;SDS011;32448;44.960;-0.698;2023-01-16T06:55:17;29.40;;;3.67;;
46717;SDS011;32448;44.960;-0.698;2023-01-16T06:57:44;18.58;;;3.08;;
46717;SDS011;32448;44.960;-0.698;2023-01-16T07:00:12;20.50;;;3.40;;
46717;SDS011;32448;44.960;-0.698;2023-01-16T07:02:41;20.10;;;2.70;;
46717;SDS011;32448;44.960;-0.698;2023-01-16T07:05:09;22.17;;;3.10;;
46717;SDS011;32448;44.960;-0.698;2023-01-16T07:07:37;24.05;;;2.63;;
46717;SDS011;32448;44.960;-0.698;2023-01-16T07:10:04;20.23;;;2.90;;
46717;SDS011;32448;44.960;-0.698;2023-01-16T07:12:31;23.20;;;3.83;;
46717;SDS011;32448;44.960;-0.698;2023-01-16T07:14:59;22.90;;;3.55;;
46717;SDS011;32448;44.960;-0.698;2023-01-16T07:17:45;21.20;;;3.15;;
46717;SDS011;32448;44.960;-0.698;2023-01-16T07:20:30;22.33;;;3.30;;
46717;SDS011;32448;44.960;-0.698;2023-01-16T07:23:18;21.02;;;3.50;;
46717;SDS011;32448;44.960;-0.698;2023-01-16T07:25:48;21.95;;;4.43;;
46717;SDS011;32448;44.960;-0.698;2023-01-16T07:28:19;27.05;;;3.92;;
46717;SDS011;32448;44.960;-0.698;2023-01-16T07:30:47;24.20;;;4.43;;
46717;SDS011;32448;44.960;-0.698;2023-01-16T07:33:16;29.40;;;4.90;;
46717;SDS011;32448;44.960;-0.698;2023-01-16T07:35:44;26.50;;;4.03;;
46717;SDS011;32448;44.960;-0.698;2023-01-16T07:38:12;33.78;;;5.57;;
46717;SDS011;32448;44.960;-0.698;2023-01-16T07:40:39;29.65;;;4.43;;
46717;SDS011;32448;44.960;-0.698;2023-01-16T07:43:07;25.98;;;4.70;;
46717;SDS011;32448;44.960;-0.698;2023-01-16T07:45:34;25.27;;;4.80;;
46717;SDS011;32448;44.960;-0.698;2023-01-16T07:48:02;27.40;;;4.05;;
46717;SDS011;32448;44.960;-0.698;2023-01-16T07:50:30;30.73;;;4.03;;
46717;SDS011;32448;44.960;-0.698;2023-01-16T07:52:57;21.00;;;4.38;;
46717;SDS011;32448;44.960;-0.698;2023-01-16T07:55:24;30.95;;;4.28;;
46717;SDS011;32448;44.960;-0.698;2023-01-16T07:57:52;29.52;;;4.28;;
46717;SDS011;32448;44.960;-0.698;2023-01-16T08:00:20;32.60;;;3.80;;
46717;SDS011;32448;44.960;-0.698;2023-01-16T08:02:48;32.47;;;4.63;;
46717;SDS011;32448;44.960;-0.698;2023-01-16T08:05:16;34.50;;;4.38;;
46717;SDS011;32448;44.960;-0.698;2023-01-16T08:07:44;28.20;;;4.05;;
46717;SDS011;32448;44.960;-0.698;2023-01-16T08:10:13;31.38;;;5.47;;
46717;SDS011;32448;44.960;-0.698;2023-01-16T08:12:41;30.88;;;4.63;;
46717;SDS011;32448;44.960;-0.698;2023-01-16T08:15:08;33.80;;;5.28;;
46717;SDS011;32448;44.960;-0.698;2023-01-16T08:17:37;35.90;;;4.75;;
46717;SDS011;32448;44.960;-0.698;2023-01-16T08:20:07;26.95;;;4.82;;
46717;SDS011;32448;44.960;-0.698;2023-01-16T08:22:41;36.58;;;5.00;;
46717;SDS011;32448;44.960;-0.698;2023-01-16T08:25:12;28.52;;;3.58;;
46717;SDS011;32448;44.960;-0.698;2023-01-16T08:27:41;28.05;;;4.43;;
46717;SDS011;32448;44.960;-0.698;2023-01-16T08:30:09;33.95;;;3.85;;
46717;SDS011;32448;44.960;-0.698;2023-01-16T08:32:37;29.48;;;4.18;;
46717;SDS011;32448;44.960;-0.698;2023-01-16T08:35:04;24.90;;;4.47;;
46717;SDS011;32448;44.960;-0.698;2023-01-16T08:37:32;39.55;;;5.63;;
46717;SDS011;32448;44.960;-0.698;2023-01-16T08:40:00;32.13;;;4.65;;
46717;SDS011;32448;44.960;-0.698;2023-01-16T08:42:28;28.50;;;4.30;;
46717;SDS011;32448;44.960;-0.698;2023-01-16T08:45:13;29.98;;;4.40;;
46717;SDS011;32448;44.960;-0.698;2023-01-16T08:48:00;26.58;;;3.70;;
46717;SDS011;32448;44.960;-0.698;2023-01-16T08:50:47;36.00;;;4.80;;
46717;SDS011;32448;44.960;-0.698;2023-01-16T08:53:33;28.27;;;3.95;;
46717;SDS011;32448;44.960;-0.698;2023-01-16T08:56:01;21.42;;;3.47;;
46717;SDS011;32448;44.960;-0.698;2023-01-16T08:58:29;20.00;;;4.03;;
46717;SDS011;32448;44.960;-0.698;2023-01-16T09:00:58;22.08;;;4.25;;
46717;SDS011;32448;44.960;-0.698;2023-01-16T09:03:28;25.58;;;4.13;;
46717;SDS011;32448;44.960;-0.698;2023-01-16T09:05:55;16.75;;;3.47;;
46717;SDS011;32448;44.960;-0.698;2023-01-16T09:08:25;28.30;;;4.43;;
46717;SDS011;32448;44.960;-0.698;2023-01-16T09:10:53;31.65;;;3.97;;
46717;SDS011;32448;44.960;-0.698;2023-01-16T09:13:39;12.32;;;2.05;;
46717;SDS011;32448;44.960;-0.698;2023-01-16T09:16:20;6.65;;;1.40;;
46717;SDS011;32448;44.960;-0.698;2023-01-16T09:21:19;8.40;;;1.27;;
46717;SDS011;32448;44.960;-0.698;2023-01-16T09:23:46;5.68;;;0.95;;
46717;SDS011;32448;44.960;-0.698;2023-01-16T09:26:14;7.45;;;1.10;;
46717;SDS011;32448;44.960;-0.698;2023-01-16T09:28:41;6.50;;;1.45;;
46717;SDS011;32448;44.960;-0.698;2023-01-16T09:31:08;4.10;;;1.20;;
46717;SDS011;32448;44.960;-0.698;2023-01-16T09:33:36;8.95;;;1.25;;
46717;SDS011;32448;44.960;-0.698;2023-01-16T09:36:04;7.10;;;1.27;;
46717;SDS011;32448;44.960;-0.698;2023-01-16T09:38:31;6.35;;;1.33;;
46717;SDS011;32448;44.960;-0.698;2023-01-16T09:40:59;13.13;;;1.58;;
46717;SDS011;32448;44.960;-0.698;2023-01-16T09:43:31;8.23;;;1.50;;
46717;SDS011;32448;44.960;-0.698;2023-01-16T09:46:16;14.05;;;1.35;;
46717;SDS011;32448;44.960;-0.698;2023-01-16T09:53:58;17.25;;;2.10;;
46717;SDS011;32448;44.960;-0.698;2023-01-16T09:56:49;16.13;;;2.50;;
46717;SDS011;32448;44.960;-0.698;2023-01-16T09:59:41;13.18;;;1.98;;
46717;SDS011;32448;44.960;-0.698;2023-01-16T10:02:22;17.30;;;1.63;;
46717;SDS011;32448;44.960;-0.698;2023-01-16T10:04:56;16.05;;;2.03;;
46717;SDS011;32448;44.960;-0.698;2023-01-16T10:12:29;10.50;;;1.77;;
46717;SDS011;32448;44.960;-0.698;2023-01-16T10:25:30;8.63;;;1.77;;
46717;SDS011;32448;44.960;-0.698;2023-01-16T10:28:08;7.40;;;1.88;;
46717;SDS011;32448;44.960;-0.698;2023-01-16T10:30:54;12.30;;;1.90;;
46717;SDS011;32448;44.960;-0.698;2023-01-16T10:33:44;12.85;;;2.03;;
46717;SDS011;32448;44.960;-0.698;2023-01-16T10:36:26;12.95;;;2.10;;
46717;SDS011;32448;44.960;-0.698;2023-01-16T10:38:59;14.13;;;2.33;;
46717;SDS011;32448;44.960;-0.698;2023-01-16T10:41:28;12.68;;;2.13;;
46717;SDS011;32448;44.960;-0.698;2023-01-16T10:44:34;14.23;;;2.10;;
46717;SDS011;32448;44.960;-0.698;2023-01-16T10:47:26;16.15;;;3.08;;
46717;SDS011;32448;44.960;-0.698;2023-01-16T10:50:16;19.77;;;4.05;;
46717;SDS011;32448;44.960;-0.698;2023-01-16T10:53:02;25.63;;;6.40;;
46717;SDS011;32448;44.960;-0.698;2023-01-16T10:55:32;19.15;;;5.00;;
46717;SDS011;32448;44.960;-0.698;2023-01-16T10:58:03;18.88;;;3.40;;
46717;SDS011;32448;44.960;-0.698;2023-01-16T11:00:35;18.50;;;4.30;;
46717;SDS011;32448;44.960;-0.698;2023-01-16T11:03:10;18.10;;;5.13;;
46717;SDS011;32448;44.960;-0.698;2023-01-16T11:05:50;26.38;;;3.67;;
46717;SDS011;32448;44.960;-0.698;2023-01-16T11:08:19;19.67;;;4.22;;
46717;SDS011;32448;44.960;-0.698;2023-01-16T11:10:49;19.67;;;3.05;;
46717;SDS011;32448;44.960;-0.698;2023-01-16T11:13:19;22.73;;;3.95;;
46717;SDS011;32448;44.960;-0.698;2023-01-16T11:19:18;18.17;;;3.50;;
46717;SDS011;32448;44.960;-0.698;2023-01-16T11:21:57;25.00;;;2.70;;
46717;SDS011;32448;44.960;-0.698;2023-01-16T11:24:36;17.05;;;3.20;;
46717;SDS011;32448;44.960;-0.698;2023-01-16T11:27:07;21.42;;;3.28;;
46717;SDS011;32448;44.960;-0.698;2023-01-16T11:29:45;19.25;;;3.17;;
46717;SDS011;32448;44.960;-0.698;2023-01-16T11:32:15;16.63;;;3.53;;
46717;SDS011;32448;44.960;-0.698;2023-01-16T11:34:55;17.88;;;3.03;;
46717;SDS011;32448;44.960;-0.698;2023-01-16T11:37:25;20.70;;;3.00;;
46717;SDS011;32448;44.960;-0.698;2023-01-16T11:39:55;26.33;;;3.38;;
46717;SDS011;32448;44.960;-0.698;2023-01-16T11:42:32;14.93;;;2.75;;
46717;SDS011;32448;44.960;-0.698;2023-01-16T11:45:20;18.95;;;4.00;;
46717;SDS011;32448;44.960;-0.698;2023-01-16T11:48:10;90.53;;;26.38;;
46717;SDS011;32448;44.960;-0.698;2023-01-16T11:50:50;48.50;;;13.05;;
46717;SDS011;32448;44.960;-0.698;2023-01-16T11:53:19;21.60;;;3.97;;
46717;SDS011;32448;44.960;-0.698;2023-01-16T12:04:57;18.17;;;3.55;;
46717;SDS011;32448;44.960;-0.698;2023-01-16T12:08:11;13.27;;;3.20;;
46717;SDS011;32448;44.960;-0.698;2023-01-16T12:11:02;12.65;;;2.72;;
46717;SDS011;32448;44.960;-0.698;2023-01-16T12:20:18;19.45;;;5.57;;
46717;SDS011;32448;44.960;-0.698;2023-01-16T12:29:09;18.70;;;2.72;;
46717;SDS011;32448;44.960;-0.698;2023-01-16T12:31:58;18.05;;;3.08;;
46717;SDS011;32448;44.960;-0.698;2023-01-16T12:37:24;17.42;;;3.33;;
46717;SDS011;32448;44.960;-0.698;2023-01-16T12:40:28;14.88;;;2.10;;
46717;SDS011;32448;44.960;-0.698;2023-01-16T12:43:10;16.27;;;2.53;;
46717;SDS011;32448;44.960;-0.698;2023-01-16T12:46:00;13.75;;;2.20;;
46717;SDS011;32448;44.960;-0.698;2023-01-16T12:48:36;16.90;;;1.90;;
46717;SDS011;32448;44.960;-0.698;2023-01-16T12:51:46;23.10;;;2.92;;
46717;SDS011;32448;44.960;-0.698;2023-01-16T13:00:14;16.33;;;3.50;;
46717;SDS011;32448;44.960;-0.698;2023-01-16T13:02:48;14.82;;;2.72;;
46717;SDS011;32448;44.960;-0.698;2023-01-16T13:05:25;16.60;;;3.75;;
46717;SDS011;32448;44.960;-0.698;2023-01-16T13:10:46;20.85;;;3.20;;
46717;SDS011;32448;44.960;-0.698;2023-01-16T13:13:58;17.65;;;2.83;;
46717;SDS011;32448;44.960;-0.698;2023-01-16T13:19:06;14.40;;;2.58;;
46717;SDS011;32448;44.960;-0.698;2023-01-16T13:21:51;14.77;;;3.13;;
46717;SDS011;32448;44.960;-0.698;2023-01-16T13:24:33;16.23;;;3.17;;
46717;SDS011;32448;44.960;-0.698;2023-01-16T13:27:09;11.82;;;2.17;;
46717;SDS011;32448;44.960;-0.698;2023-01-16T13:29:50;11.95;;;3.10;;
46717;SDS011;32448;44.960;-0.698;2023-01-16T13:35:15;14.80;;;3.05;;
46717;SDS011;32448;44.960;-0.698;2023-01-16T13:41:33;13.57;;;3.22;;
46717;SDS011;32448;44.960;-0.698;2023-01-16T13:44:00;13.90;;;3.65;;
46717;SDS011;32448;44.960;-0.698;2023-01-16T13:46:52;18.67;;;2.78;;
46717;SDS011;32448;44.960;-0.698;2023-01-16T13:49:21;19.13;;;3.03;;
46717;SDS011;32448;44.960;-0.698;2023-01-16T13:51:52;16.77;;;3.08;;
46717;SDS011;32448;44.960;-0.698;2023-01-16T13:54:22;21.70;;;2.70;;
46717;SDS011;32448;44.960;-0.698;2023-01-16T13:56:59;14.80;;;2.35;;
46717;SDS011;32448;44.960;-0.698;2023-01-16T14:02:25;14.40;;;3.20;;
46717;SDS011;32448;44.960;-0.698;2023-01-16T14:15:52;11.50;;;2.55;;
46717;SDS011;32448;44.960;-0.698;2023-01-16T14:21:24;16.88;;;2.95;;
46717;SDS011;32448;44.960;-0.698;2023-01-16T14:23:56;10.00;;;2.05;;
46717;SDS011;32448;44.960;-0.698;2023-01-16T14:32:17;11.48;;;2.70;;
46717;SDS011;32448;44.960;-0.698;2023-01-16T14:34:51;13.90;;;2.30;;
46717;SDS011;32448;44.960;-0.698;2023-01-16T14:37:30;14.32;;;2.63;;
46717;SDS011;32448;44.960;-0.698;2023-01-16T14:40:33;12.93;;;2.13;;
46717;SDS011;32448;44.960;-0.698;2023-01-16T14:43:26;11.43;;;1.80;;
46717;SDS011;32448;44.960;-0.698;2023-01-16T14:55:31;15.50;;;2.53;;
46717;SDS011;32448;44.960;-0.698;2023-01-16T14:58:10;12.88;;;2.70;;
46717;SDS011;32448;44.960;-0.698;2023-01-16T15:00:41;17.58;;;2.83;;
46717;SDS011;32448;44.960;-0.698;2023-01-16T15:03:14;16.33;;;2.95;;
46717;SDS011;32448;44.960;-0.698;2023-01-16T15:05:50;11.60;;;2.78;;
46717;SDS011;32448;44.960;-0.698;2023-01-16T15:08:26;19.92;;;2.65;;
46717;SDS011;32448;44.960;-0.698;2023-01-16T15:11:00;11.52;;;2.28;;
46717;SDS011;32448;44.960;-0.698;2023-01-16T15:17:15;12.43;;;2.30;;
46717;SDS011;32448;44.960;-0.698;2023-01-16T15:20:24;24.75;;;8.27;;
46717;SDS011;32448;44.960;-0.698;2023-01-16T15:28:37;18.42;;;2.63;;
46717;SDS011;32448;44.960;-0.698;2023-01-16T15:31:23;21.40;;;3.53;;
46717;SDS011;32448;44.960;-0.698;2023-01-16T15:34:05;17.02;;;2.67;;
46717;SDS011;32448;44.960;-0.698;2023-01-16T15:36:49;17.30;;;2.67;;
46717;SDS011;32448;44.960;-0.698;2023-01-16T15:39:26;13.00;;;2.20;;
46717;SDS011;32448;44.960;-0.698;2023-01-16T15:42:01;9.98;;;1.90;;
46717;SDS011;32448;44.960;-0.698;2023-01-16T15:45:20;10.75;;;1.88;;
46717;SDS011;32448;44.960;-0.698;2023-01-16T15:51:03;9.00;;;1.70;;
46717;SDS011;32448;44.960;-0.698;2023-01-16T15:53:38;10.32;;;2.00;;
46717;SDS011;32448;44.960;-0.698;2023-01-16T15:58:46;7.50;;;1.50;;
46717;SDS011;32448;44.960;-0.698;2023-01-16T16:01:39;13.52;;;2.63;;
46717;SDS011;32448;44.960;-0.698;2023-01-16T16:04:07;22.77;;;7.65;;
46717;SDS011;32448;44.960;-0.698;2023-01-16T16:06:36;47.92;;;19.70;;
46717;SDS011;32448;44.960;-0.698;2023-01-16T16:09:05;47.17;;;19.08;;
46717;SDS011;32448;44.960;-0.698;2023-01-16T16:11:40;25.92;;;9.90;;
46717;SDS011;32448;44.960;-0.698;2023-01-16T16:14:27;13.13;;;5.10;;
46717;SDS011;32448;44.960;-0.698;2023-01-16T16:17:24;11.73;;;3.08;;
46717;SDS011;32448;44.960;-0.698;2023-01-16T16:20:30;15.10;;;1.83;;
46717;SDS011;32448;44.960;-0.698;2023-01-16T16:23:04;8.65;;;1.90;;
46717;SDS011;32448;44.960;-0.698;2023-01-16T16:25:49;10.43;;;2.35;;
46717;SDS011;32448;44.960;-0.698;2023-01-16T16:33:56;8.15;;;2.08;;
46717;SDS011;32448;44.960;-0.698;2023-01-16T16:36:26;11.02;;;2.10;;
46717;SDS011;32448;44.960;-0.698;2023-01-16T16:38:55;9.77;;;1.92;;
46717;SDS011;32448;44.960;-0.698;2023-01-16T16:43:57;8.88;;;1.63;;
46717;SDS011;32448;44.960;-0.698;2023-01-16T16:49:37;21.25;;;7.93;;
46717;SDS011;32448;44.960;-0.698;2023-01-16T16:51:51;44.53;;;20.95;;
46717;SDS011;32448;44.960;-0.698;2023-01-16T16:54:18;25.23;;;10.32;;
46717;SDS011;32448;44.960;-0.698;2023-01-16T16:56:56;14.10;;;5.15;;
46717;SDS011;32448;44.960;-0.698;2023-01-16T16:59:26;7.10;;;2.23;;
46717;SDS011;32448;44.960;-0.698;2023-01-16T17:01:56;9.70;;;1.83;;
46717;SDS011;32448;44.960;-0.698;2023-01-16T17:04:30;8.02;;;2.42;;
46717;SDS011;32448;44.960;-0.698;2023-01-16T17:06:58;64.10;;;15.40;;
46717;SDS011;32448;44.960;-0.698;2023-01-16T17:09:25;48.83;;;11.88;;
46717;SDS011;32448;44.960;-0.698;2023-01-16T17:11:59;75.82;;;18.42;;
46717;SDS011;32448;44.960;-0.698;2023-01-16T17:14:39;75.13;;;20.42;;
46717;SDS011;32448;44.960;-0.698;2023-01-16T17:17:10;56.38;;;16.05;;
46717;SDS011;32448;44.960;-0.698;2023-01-16T17:19:39;42.45;;;11.05;;
46717;SDS011;32448;44.960;-0.698;2023-01-16T17:22:07;54.45;;;17.52;;
46717;SDS011;32448;44.960;-0.698;2023-01-16T17:24:36;32.38;;;9.95;;
46717;SDS011;32448;44.960;-0.698;2023-01-16T17:27:04;12.55;;;4.13;;
46717;SDS011;32448;44.960;-0.698;2023-01-16T17:29:36;12.55;;;3.80;;
46717;SDS011;32448;44.960;-0.698;2023-01-16T17:32:21;17.33;;;6.78;;
46717;SDS011;32448;44.960;-0.698;2023-01-16T17:34:50;27.63;;;10.35;;
46717;SDS011;32448;44.960;-0.698;2023-01-16T17:37:18;27.48;;;10.80;;
46717;SDS011;32448;44.960;-0.698;2023-01-16T17:39:47;16.27;;;5.55;;
46717;SDS011;32448;44.960;-0.698;2023-01-16T17:42:15;9.85;;;3.67;;
46717;SDS011;32448;44.960;-0.698;2023-01-16T17:44:42;9.00;;;2.80;;
46717;SDS011;32448;44.960;-0.698;2023-01-16T17:47:28;10.32;;;1.83;;
46717;SDS011;32448;44.960;-0.698;2023-01-16T17:49:58;11.55;;;2.22;;
46717;SDS011;32448;44.960;-0.698;2023-01-16T17:52:48;9.70;;;1.95;;
46717;SDS011;32448;44.960;-0.698;2023-01-16T17:55:21;7.80;;;1.93;;
46717;SDS011;32448;44.960;-0.698;2023-01-16T17:58:10;7.80;;;2.10;;
46717;SDS011;32448;44.960;-0.698;2023-01-16T18:00:41;5.78;;;1.60;;
46717;SDS011;32448;44.960;-0.698;2023-01-16T18:03:18;9.32;;;1.50;;
46717;SDS011;32448;44.960;-0.698;2023-01-16T18:06:00;7.82;;;1.40;;